sensor_id;sensor_type;location;lat;lon;timestamp;P1;durP1;ratioP1;P2;durP2;ratioP2
2061;SDS011;11070;51.336;12.340;2024-01-30T00:01:25;9.87;;;7.90;;
2061;SDS011;11070;51.336;12.340;2024-01-30T00:03:51;8.63;;;6.60;;
2061;SDS011;11070;51.336;12.340;2024-01-30T00:06:20;8.43;;;7.40;;
2061;SDS011;11070;51.336;12.340;2024-01-30T00:08:46;8.50;;;6.55;;
2061;SDS011;11070;51.336;12.340;2024-01-30T00:11:14;8.93;;;7.20;;
2061;SDS011;11070;51.336;12.340;2024-01-30T00:13:40;8.98;;;7.25;;
2061;SDS011;11070;51.336;12.340;2024-01-30T00:16:06;9.67;;;7.17;;
2061;SDS011;11070;51.336;12.340;2024-01-30T00:18:33;7.88;;;6.90;;
2061;SDS011;11070;51.336;12.340;2024-01-30T00:20:58;9.10;;;7.00;;
2061;SDS011;11070;51.336;12.340;2024-01-30T00:23:24;9.60;;;6.70;;
2061;SDS011;11070;51.336;12.340;2024-01-30T00:25:50;9.90;;;7.03;;
2061;SDS011;11070;51.336;12.340;2024-01-30T00:28:15;9.77;;;7.13;;
2061;SDS011;11070;51.336;12.340;2024-01-30T00:30:41;8.07;;;6.50;;
2061;SDS011;11070;51.336;12.340;2024-01-30T00:33:07;9.20;;;7.10;;
2061;SDS011;11070;51.336;12.340;2024-01-30T00:35:34;8.25;;;6.47;;
2061;SDS011;11070;51.336;12.340;2024-01-30T00:37:59;7.30;;;6.47;;
2061;SDS011;11070;51.336;12.340;2024-01-30T00:40:25;9.33;;;6.77;;
2061;SDS011;11070;51.336;12.340;2024-01-30T00:42:51;8.57;;;6.80;;
2061;SDS011;11070;51.336;12.340;2024-01-30T00:45:17;7.93;;;6.50;;
2061;SDS011;11070;51.336;12.340;2024-01-30T00:47:43;8.00;;;6.53;;
2061;SDS011;11070;51.336;12.340;2024-01-30T00:50:09;9.60;;;6.50;;
2061;SDS011;11070;51.336;12.340;2024-01-30T00:52:35;9.95;;;6.50;;
2061;SDS011;11070;51.336;12.340;2024-01-30T00:55:01;6.93;;;6.07;;
2061;SDS011;11070;51.336;12.340;2024-01-30T00:57:27;7.32;;;6.28;;
2061;SDS011;11070;51.336;12.340;2024-01-30T00:59:53;9.20;;;6.37;;
2061;SDS011;11070;51.336;12.340;2024-01-30T01:02:19;7.40;;;6.37;;
2061;SDS011;11070;51.336;12.340;2024-01-30T01:04:44;9.40;;;6.23;;
2061;SDS011;11070;51.336;12.340;2024-01-30T01:07:11;6.93;;;5.93;;
2061;SDS011;11070;51.336;12.340;2024-01-30T01:09:36;8.05;;;6.13;;
2061;SDS011;11070;51.336;12.340;2024-01-30T01:12:02;7.27;;;5.80;;
2061;SDS011;11070;51.336;12.340;2024-01-30T01:14:29;7.78;;;6.43;;
2061;SDS011;11070;51.336;12.340;2024-01-30T01:16:54;7.00;;;6.30;;
2061;SDS011;11070;51.336;12.340;2024-01-30T01:19:21;9.02;;;6.32;;
2061;SDS011;11070;51.336;12.340;2024-01-30T01:21:46;7.63;;;6.00;;
2061;SDS011;11070;51.336;12.340;2024-01-30T01:24:12;8.43;;;5.90;;
2061;SDS011;11070;51.336;12.340;2024-01-30T01:26:38;6.70;;;6.00;;
2061;SDS011;11070;51.336;12.340;2024-01-30T01:29:03;8.10;;;6.03;;
2061;SDS011;11070;51.336;12.340;2024-01-30T01:31:35;8.63;;;6.57;;
2061;SDS011;11070;51.336;12.340;2024-01-30T01:34:05;6.68;;;5.65;;
2061;SDS011;11070;51.336;12.340;2024-01-30T01:36:31;7.88;;;6.18;;
2061;SDS011;11070;51.336;12.340;2024-01-30T01:38:56;9.13;;;6.87;;
2061;SDS011;11070;51.336;12.340;2024-01-30T01:41:22;7.80;;;6.40;;
2061;SDS011;11070;51.336;12.340;2024-01-30T01:43:48;8.53;;;6.37;;
2061;SDS011;11070;51.336;12.340;2024-01-30T01:46:13;6.80;;;6.10;;
2061;SDS011;11070;51.336;12.340;2024-01-30T01:48:39;7.83;;;5.90;;
2061;SDS011;11070;51.336;12.340;2024-01-30T01:51:05;8.10;;;6.28;;
2061;SDS011;11070;51.336;12.340;2024-01-30T01:53:32;9.50;;;6.93;;
2061;SDS011;11070;51.336;12.340;2024-01-30T01:55:58;8.27;;;6.60;;
2061;SDS011;11070;51.336;12.340;2024-01-30T01:58:23;11.77;;;7.10;;
2061;SDS011;11070;51.336;12.340;2024-01-30T02:00:53;7.75;;;6.85;;
2061;SDS011;11070;51.336;12.340;2024-01-30T02:03:19;7.77;;;6.43;;
2061;SDS011;11070;51.336;12.340;2024-01-30T02:05:49;10.10;;;6.95;;
2061;SDS011;11070;51.336;12.340;2024-01-30T02:08:16;10.88;;;6.28;;
2061;SDS011;11070;51.336;12.340;2024-01-30T02:10:42;8.07;;;6.23;;
2061;SDS011;11070;51.336;12.340;2024-01-30T02:13:08;8.50;;;6.40;;
2061;SDS011;11070;51.336;12.340;2024-01-30T02:15:33;9.40;;;6.70;;
2061;SDS011;11070;51.336;12.340;2024-01-30T02:17:59;9.30;;;6.43;;
2061;SDS011;11070;51.336;12.340;2024-01-30T02:20:25;8.27;;;6.33;;
2061;SDS011;11070;51.336;12.340;2024-01-30T02:22:54;8.38;;;6.30;;
2061;SDS011;11070;51.336;12.340;2024-01-30T02:25:29;6.82;;;6.10;;
2061;SDS011;11070;51.336;12.340;2024-01-30T02:27:56;10.23;;;6.35;;
2061;SDS011;11070;51.336;12.340;2024-01-30T02:30:21;9.00;;;6.70;;
2061;SDS011;11070;51.336;12.340;2024-01-30T02:32:47;11.13;;;6.97;;
2061;SDS011;11070;51.336;12.340;2024-01-30T02:35:12;8.27;;;6.40;;
2061;SDS011;11070;51.336;12.340;2024-01-30T02:37:38;8.37;;;6.23;;
2061;SDS011;11070;51.336;12.340;2024-01-30T02:40:04;8.10;;;6.30;;
2061;SDS011;11070;51.336;12.340;2024-01-30T02:42:30;9.73;;;6.68;;
2061;SDS011;11070;51.336;12.340;2024-01-30T02:44:56;8.43;;;5.87;;
2061;SDS011;11070;51.336;12.340;2024-01-30T02:47:21;7.03;;;6.33;;
2061;SDS011;11070;51.336;12.340;2024-01-30T02:49:47;9.50;;;6.60;;
2061;SDS011;11070;51.336;12.340;2024-01-30T02:52:13;8.50;;;6.50;;
2061;SDS011;11070;51.336;12.340;2024-01-30T02:54:38;7.37;;;6.13;;
2061;SDS011;11070;51.336;12.340;2024-01-30T02:57:04;6.87;;;5.60;;
2061;SDS011;11070;51.336;12.340;2024-01-30T02:59:30;9.83;;;6.80;;
2061;SDS011;11070;51.336;12.340;2024-01-30T03:01:58;8.77;;;5.80;;
2061;SDS011;11070;51.336;12.340;2024-01-30T03:04:24;8.60;;;6.55;;
2061;SDS011;11070;51.336;12.340;2024-01-30T03:06:50;6.47;;;5.43;;
2061;SDS011;11070;51.336;12.340;2024-01-30T03:09:16;9.07;;;6.67;;
2061;SDS011;11070;51.336;12.340;2024-01-30T03:11:42;8.10;;;5.80;;
2061;SDS011;11070;51.336;12.340;2024-01-30T03:14:08;7.13;;;6.43;;
2061;SDS011;11070;51.336;12.340;2024-01-30T03:16:36;9.32;;;6.57;;
2061;SDS011;11070;51.336;12.340;2024-01-30T03:19:02;9.55;;;6.35;;
2061;SDS011;11070;51.336;12.340;2024-01-30T03:21:29;7.85;;;6.68;;
2061;SDS011;11070;51.336;12.340;2024-01-30T03:23:55;7.60;;;6.60;;
2061;SDS011;11070;51.336;12.340;2024-01-30T03:26:20;11.03;;;7.30;;
2061;SDS011;11070;51.336;12.340;2024-01-30T03:28:46;7.50;;;6.20;;
2061;SDS011;11070;51.336;12.340;2024-01-30T03:31:13;8.60;;;6.53;;
2061;SDS011;11070;51.336;12.340;2024-01-30T03:33:42;7.90;;;6.50;;
2061;SDS011;11070;51.336;12.340;2024-01-30T03:36:08;7.77;;;6.50;;
2061;SDS011;11070;51.336;12.340;2024-01-30T03:38:34;10.77;;;7.22;;
2061;SDS011;11070;51.336;12.340;2024-01-30T03:41:00;9.55;;;7.13;;
2061;SDS011;11070;51.336;12.340;2024-01-30T03:43:26;8.90;;;7.07;;
2061;SDS011;11070;51.336;12.340;2024-01-30T03:45:52;8.13;;;6.22;;
2061;SDS011;11070;51.336;12.340;2024-01-30T03:48:18;8.93;;;6.23;;
2061;SDS011;11070;51.336;12.340;2024-01-30T03:50:45;8.25;;;6.28;;
2061;SDS011;11070;51.336;12.340;2024-01-30T03:53:10;8.53;;;6.77;;
2061;SDS011;11070;51.336;12.340;2024-01-30T03:55:36;7.50;;;6.63;;
2061;SDS011;11070;51.336;12.340;2024-01-30T03:58:02;9.57;;;6.60;;
2061;SDS011;11070;51.336;12.340;2024-01-30T04:00:27;11.00;;;7.70;;
2061;SDS011;11070;51.336;12.340;2024-01-30T04:02:53;10.67;;;7.20;;
2061;SDS011;11070;51.336;12.340;2024-01-30T04:05:19;8.73;;;6.77;;
2061;SDS011;11070;51.336;12.340;2024-01-30T04:07:44;8.40;;;7.10;;
2061;SDS011;11070;51.336;12.340;2024-01-30T04:10:10;8.70;;;7.00;;
2061;SDS011;11070;51.336;12.340;2024-01-30T04:12:36;7.30;;;6.60;;
2061;SDS011;11070;51.336;12.340;2024-01-30T04:15:02;10.33;;;7.10;;
2061;SDS011;11070;51.336;12.340;2024-01-30T04:17:28;8.88;;;7.22;;
2061;SDS011;11070;51.336;12.340;2024-01-30T04:19:54;9.50;;;7.47;;
2061;SDS011;11070;51.336;12.340;2024-01-30T04:22:20;8.80;;;7.40;;
2061;SDS011;11070;51.336;12.340;2024-01-30T04:24:46;8.40;;;7.10;;
2061;SDS011;11070;51.336;12.340;2024-01-30T04:27:12;10.90;;;7.13;;
2061;SDS011;11070;51.336;12.340;2024-01-30T04:29:37;8.63;;;7.33;;
2061;SDS011;11070;51.336;12.340;2024-01-30T04:32:03;10.10;;;7.23;;
2061;SDS011;11070;51.336;12.340;2024-01-30T04:34:29;8.63;;;7.03;;
2061;SDS011;11070;51.336;12.340;2024-01-30T04:36:55;9.23;;;7.00;;
2061;SDS011;11070;51.336;12.340;2024-01-30T04:39:21;7.63;;;6.90;;
2061;SDS011;11070;51.336;12.340;2024-01-30T04:41:49;7.97;;;6.60;;
2061;SDS011;11070;51.336;12.340;2024-01-30T04:44:14;9.93;;;7.40;;
2061;SDS011;11070;51.336;12.340;2024-01-30T04:46:40;10.03;;;7.17;;
2061;SDS011;11070;51.336;12.340;2024-01-30T04:49:06;10.43;;;7.80;;
2061;SDS011;11070;51.336;12.340;2024-01-30T04:51:34;13.85;;;7.68;;
2061;SDS011;11070;51.336;12.340;2024-01-30T04:54:00;8.50;;;7.20;;
2061;SDS011;11070;51.336;12.340;2024-01-30T04:56:25;8.83;;;7.43;;
2061;SDS011;11070;51.336;12.340;2024-01-30T04:58:51;9.60;;;7.40;;
2061;SDS011;11070;51.336;12.340;2024-01-30T05:01:17;8.97;;;6.97;;
2061;SDS011;11070;51.336;12.340;2024-01-30T05:03:43;10.03;;;7.40;;
2061;SDS011;11070;51.336;12.340;2024-01-30T05:06:08;9.93;;;7.43;;
2061;SDS011;11070;51.336;12.340;2024-01-30T05:08:34;13.50;;;8.63;;
2061;SDS011;11070;51.336;12.340;2024-01-30T05:11:04;10.43;;;7.72;;
2061;SDS011;11070;51.336;12.340;2024-01-30T05:13:30;14.90;;;7.65;;
2061;SDS011;11070;51.336;12.340;2024-01-30T05:15:56;10.23;;;7.28;;
2061;SDS011;11070;51.336;12.340;2024-01-30T05:18:22;8.00;;;6.77;;
2061;SDS011;11070;51.336;12.340;2024-01-30T05:20:49;11.17;;;7.60;;
2061;SDS011;11070;51.336;12.340;2024-01-30T05:23:15;9.55;;;6.45;;
2061;SDS011;11070;51.336;12.340;2024-01-30T05:25:41;10.73;;;7.80;;
2061;SDS011;11070;51.336;12.340;2024-01-30T05:28:07;8.50;;;7.10;;
2061;SDS011;11070;51.336;12.340;2024-01-30T05:30:33;9.90;;;7.13;;
2061;SDS011;11070;51.336;12.340;2024-01-30T05:32:58;10.73;;;8.10;;
2061;SDS011;11070;51.336;12.340;2024-01-30T05:35:24;10.70;;;8.20;;
2061;SDS011;11070;51.336;12.340;2024-01-30T05:37:50;11.17;;;7.57;;
2061;SDS011;11070;51.336;12.340;2024-01-30T05:40:16;8.73;;;7.30;;
2061;SDS011;11070;51.336;12.340;2024-01-30T05:42:42;12.48;;;7.95;;
2061;SDS011;11070;51.336;12.340;2024-01-30T05:45:07;11.03;;;7.97;;
2061;SDS011;11070;51.336;12.340;2024-01-30T05:47:35;8.50;;;6.78;;
2061;SDS011;11070;51.336;12.340;2024-01-30T05:50:01;10.00;;;7.40;;
2061;SDS011;11070;51.336;12.340;2024-01-30T05:52:28;10.40;;;7.68;;
2061;SDS011;11070;51.336;12.340;2024-01-30T05:54:53;11.20;;;7.10;;
2061;SDS011;11070;51.336;12.340;2024-01-30T05:57:19;10.80;;;7.37;;
2061;SDS011;11070;51.336;12.340;2024-01-30T05:59:45;9.47;;;7.77;;
2061;SDS011;11070;51.336;12.340;2024-01-30T06:02:12;9.18;;;8.10;;
2061;SDS011;11070;51.336;12.340;2024-01-30T06:04:38;11.32;;;8.18;;
2061;SDS011;11070;51.336;12.340;2024-01-30T06:07:04;11.63;;;8.10;;
2061;SDS011;11070;51.336;12.340;2024-01-30T06:09:31;12.02;;;8.48;;
2061;SDS011;11070;51.336;12.340;2024-01-30T06:11:57;12.82;;;9.13;;
2061;SDS011;11070;51.336;12.340;2024-01-30T06:14:23;10.20;;;7.80;;
2061;SDS011;11070;51.336;12.340;2024-01-30T06:16:49;11.30;;;8.60;;
2061;SDS011;11070;51.336;12.340;2024-01-30T06:19:15;11.80;;;8.40;;
2061;SDS011;11070;51.336;12.340;2024-01-30T06:21:40;11.20;;;8.40;;
2061;SDS011;11070;51.336;12.340;2024-01-30T06:24:06;9.47;;;6.90;;
2061;SDS011;11070;51.336;12.340;2024-01-30T06:26:32;10.73;;;7.83;;
2061;SDS011;11070;51.336;12.340;2024-01-30T06:28:58;11.40;;;8.05;;
2061;SDS011;11070;51.336;12.340;2024-01-30T06:31:25;10.40;;;7.20;;
2061;SDS011;11070;51.336;12.340;2024-01-30T06:33:50;11.23;;;8.40;;
2061;SDS011;11070;51.336;12.340;2024-01-30T06:36:16;10.80;;;8.20;;
2061;SDS011;11070;51.336;12.340;2024-01-30T06:38:41;10.53;;;8.30;;
2061;SDS011;11070;51.336;12.340;2024-01-30T06:41:07;13.23;;;9.47;;
2061;SDS011;11070;51.336;12.340;2024-01-30T06:43:33;14.10;;;9.20;;
2061;SDS011;11070;51.336;12.340;2024-01-30T06:45:59;10.23;;;7.80;;
2061;SDS011;11070;51.336;12.340;2024-01-30T06:48:25;11.97;;;8.67;;
2061;SDS011;11070;51.336;12.340;2024-01-30T06:50:53;12.50;;;8.17;;
2061;SDS011;11070;51.336;12.340;2024-01-30T06:53:19;20.35;;;8.25;;
2061;SDS011;11070;51.336;12.340;2024-01-30T06:55:44;10.50;;;7.63;;
2061;SDS011;11070;51.336;12.340;2024-01-30T06:58:10;11.37;;;8.23;;
2061;SDS011;11070;51.336;12.340;2024-01-30T07:00:36;11.03;;;7.77;;
2061;SDS011;11070;51.336;12.340;2024-01-30T07:03:02;14.23;;;8.43;;
2061;SDS011;11070;51.336;12.340;2024-01-30T07:05:28;12.30;;;8.05;;
2061;SDS011;11070;51.336;12.340;2024-01-30T07:07:54;15.33;;;7.27;;
2061;SDS011;11070;51.336;12.340;2024-01-30T07:10:19;13.30;;;7.90;;
2061;SDS011;11070;51.336;12.340;2024-01-30T07:12:45;9.63;;;7.40;;
2061;SDS011;11070;51.336;12.340;2024-01-30T07:15:11;13.20;;;8.43;;
2061;SDS011;11070;51.336;12.340;2024-01-30T07:17:38;12.15;;;7.72;;
2061;SDS011;11070;51.336;12.340;2024-01-30T07:20:04;12.43;;;8.00;;
2061;SDS011;11070;51.336;12.340;2024-01-30T07:22:31;12.73;;;8.35;;
2061;SDS011;11070;51.336;12.340;2024-01-30T07:24:56;12.20;;;8.80;;
2061;SDS011;11070;51.336;12.340;2024-01-30T07:27:22;11.20;;;8.73;;
2061;SDS011;11070;51.336;12.340;2024-01-30T07:29:48;11.37;;;8.03;;
2061;SDS011;11070;51.336;12.340;2024-01-30T07:32:14;11.52;;;8.82;;
2061;SDS011;11070;51.336;12.340;2024-01-30T07:34:39;12.80;;;8.40;;
2061;SDS011;11070;51.336;12.340;2024-01-30T07:37:05;11.43;;;8.60;;
2061;SDS011;11070;51.336;12.340;2024-01-30T07:39:33;10.60;;;8.48;;
2061;SDS011;11070;51.336;12.340;2024-01-30T07:41:59;11.05;;;8.23;;
2061;SDS011;11070;51.336;12.340;2024-01-30T07:44:25;12.73;;;8.70;;
2061;SDS011;11070;51.336;12.340;2024-01-30T07:46:51;13.53;;;7.93;;
2061;SDS011;11070;51.336;12.340;2024-01-30T07:49:16;10.07;;;7.80;;
2061;SDS011;11070;51.336;12.340;2024-01-30T07:51:42;10.13;;;7.30;;
2061;SDS011;11070;51.336;12.340;2024-01-30T07:54:08;13.57;;;8.90;;
2061;SDS011;11070;51.336;12.340;2024-01-30T07:56:34;14.03;;;8.20;;
2061;SDS011;11070;51.336;12.340;2024-01-30T07:59:00;13.07;;;8.53;;
2061;SDS011;11070;51.336;12.340;2024-01-30T08:01:25;13.63;;;8.30;;
2061;SDS011;11070;51.336;12.340;2024-01-30T08:03:51;10.30;;;8.10;;
2061;SDS011;11070;51.336;12.340;2024-01-30T08:06:17;10.50;;;8.00;;
2061;SDS011;11070;51.336;12.340;2024-01-30T08:08:42;13.60;;;7.37;;
2061;SDS011;11070;51.336;12.340;2024-01-30T08:11:08;12.67;;;8.60;;
2061;SDS011;11070;51.336;12.340;2024-01-30T08:13:34;13.90;;;8.07;;
2061;SDS011;11070;51.336;12.340;2024-01-30T08:15:59;9.50;;;8.13;;
2061;SDS011;11070;51.336;12.340;2024-01-30T08:18:25;11.03;;;7.83;;
2061;SDS011;11070;51.336;12.340;2024-01-30T08:20:51;11.60;;;8.17;;
2061;SDS011;11070;51.336;12.340;2024-01-30T08:23:17;10.57;;;8.30;;
2061;SDS011;11070;51.336;12.340;2024-01-30T08:25:42;10.30;;;8.07;;
2061;SDS011;11070;51.336;12.340;2024-01-30T08:28:08;11.60;;;8.27;;
2061;SDS011;11070;51.336;12.340;2024-01-30T08:30:34;12.93;;;7.80;;
2061;SDS011;11070;51.336;12.340;2024-01-30T08:33:00;11.57;;;8.40;;
2061;SDS011;11070;51.336;12.340;2024-01-30T08:35:26;11.03;;;8.20;;
2061;SDS011;11070;51.336;12.340;2024-01-30T08:37:51;10.57;;;7.57;;
2061;SDS011;11070;51.336;12.340;2024-01-30T08:40:17;9.00;;;7.27;;
2061;SDS011;11070;51.336;12.340;2024-01-30T08:42:43;9.70;;;7.93;;
2061;SDS011;11070;51.336;12.340;2024-01-30T08:45:09;12.10;;;7.43;;
2061;SDS011;11070;51.336;12.340;2024-01-30T08:47:34;13.82;;;8.25;;
2061;SDS011;11070;51.336;12.340;2024-01-30T08:50:00;12.77;;;8.17;;
2061;SDS011;11070;51.336;12.340;2024-01-30T08:52:26;9.43;;;7.80;;
2061;SDS011;11070;51.336;12.340;2024-01-30T08:54:51;11.63;;;7.87;;
2061;SDS011;11070;51.336;12.340;2024-01-30T08:57:17;10.60;;;7.83;;
2061;SDS011;11070;51.336;12.340;2024-01-30T08:59:43;12.17;;;7.50;;
2061;SDS011;11070;51.336;12.340;2024-01-30T09:02:10;12.35;;;8.70;;
2061;SDS011;11070;51.336;12.340;2024-01-30T09:04:38;9.65;;;8.48;;
2061;SDS011;11070;51.336;12.340;2024-01-30T09:07:04;9.10;;;7.70;;
2061;SDS011;11070;51.336;12.340;2024-01-30T09:09:33;11.18;;;8.63;;
2061;SDS011;11070;51.336;12.340;2024-01-30T09:11:59;14.17;;;8.07;;
2061;SDS011;11070;51.336;12.340;2024-01-30T09:14:29;10.68;;;8.20;;
2061;SDS011;11070;51.336;12.340;2024-01-30T09:16:55;10.05;;;7.82;;
2061;SDS011;11070;51.336;12.340;2024-01-30T09:19:21;10.43;;;8.53;;
2061;SDS011;11070;51.336;12.340;2024-01-30T09:21:47;10.30;;;8.23;;
2061;SDS011;11070;51.336;12.340;2024-01-30T09:24:12;12.50;;;8.60;;
2061;SDS011;11070;51.336;12.340;2024-01-30T09:26:38;11.37;;;9.10;;
2061;SDS011;11070;51.336;12.340;2024-01-30T09:29:04;9.83;;;8.30;;
2061;SDS011;11070;51.336;12.340;2024-01-30T09:31:29;11.00;;;7.97;;
2061;SDS011;11070;51.336;12.340;2024-01-30T09:33:55;11.37;;;8.47;;
2061;SDS011;11070;51.336;12.340;2024-01-30T09:36:20;12.00;;;8.55;;
2061;SDS011;11070;51.336;12.340;2024-01-30T09:38:47;10.20;;;8.30;;
2061;SDS011;11070;51.336;12.340;2024-01-30T09:41:12;11.20;;;8.67;;
2061;SDS011;11070;51.336;12.340;2024-01-30T09:43:40;10.82;;;8.73;;
2061;SDS011;11070;51.336;12.340;2024-01-30T09:46:12;11.23;;;8.68;;
2061;SDS011;11070;51.336;12.340;2024-01-30T09:48:41;11.43;;;8.48;;
2061;SDS011;11070;51.336;12.340;2024-01-30T09:51:09;12.73;;;8.82;;
2061;SDS011;11070;51.336;12.340;2024-01-30T09:53:36;10.98;;;9.13;;
2061;SDS011;11070;51.336;12.340;2024-01-30T09:56:02;11.13;;;8.60;;
2061;SDS011;11070;51.336;12.340;2024-01-30T09:58:29;12.57;;;9.45;;
2061;SDS011;11070;51.336;12.340;2024-01-30T10:00:54;11.30;;;8.50;;
2061;SDS011;11070;51.336;12.340;2024-01-30T10:03:20;10.47;;;8.20;;
2061;SDS011;11070;51.336;12.340;2024-01-30T10:05:52;11.37;;;8.37;;
2061;SDS011;11070;51.336;12.340;2024-01-30T10:08:18;10.13;;;8.70;;
2061;SDS011;11070;51.336;12.340;2024-01-30T10:10:47;12.35;;;9.15;;
2061;SDS011;11070;51.336;12.340;2024-01-30T10:13:16;11.55;;;8.65;;
2061;SDS011;11070;51.336;12.340;2024-01-30T10:15:42;13.35;;;9.07;;
2061;SDS011;11070;51.336;12.340;2024-01-30T10:18:10;11.97;;;8.77;;
2061;SDS011;11070;51.336;12.340;2024-01-30T10:20:36;13.95;;;8.65;;
2061;SDS011;11070;51.336;12.340;2024-01-30T10:23:02;12.10;;;8.67;;
2061;SDS011;11070;51.336;12.340;2024-01-30T10:25:29;11.63;;;9.05;;
2061;SDS011;11070;51.336;12.340;2024-01-30T10:27:56;11.85;;;8.85;;
2061;SDS011;11070;51.336;12.340;2024-01-30T10:30:23;13.02;;;9.18;;
2061;SDS011;11070;51.336;12.340;2024-01-30T10:32:49;12.35;;;9.20;;
2061;SDS011;11070;51.336;12.340;2024-01-30T10:35:15;11.80;;;9.80;;
2061;SDS011;11070;51.336;12.340;2024-01-30T10:37:44;10.65;;;9.40;;
2061;SDS011;11070;51.336;12.340;2024-01-30T10:40:12;10.07;;;8.80;;
2061;SDS011;11070;51.336;12.340;2024-01-30T10:42:41;11.00;;;8.35;;
2061;SDS011;11070;51.336;12.340;2024-01-30T10:45:09;12.52;;;8.70;;
2061;SDS011;11070;51.336;12.340;2024-01-30T10:47:39;13.40;;;8.90;;
2061;SDS011;11070;51.336;12.340;2024-01-30T10:50:08;9.77;;;8.18;;
2061;SDS011;11070;51.336;12.340;2024-01-30T10:52:35;10.73;;;9.38;;
2061;SDS011;11070;51.336;12.340;2024-01-30T10:55:01;11.70;;;9.20;;
2061;SDS011;11070;51.336;12.340;2024-01-30T10:57:30;13.00;;;9.00;;
2061;SDS011;11070;51.336;12.340;2024-01-30T11:00:06;11.80;;;9.20;;
2061;SDS011;11070;51.336;12.340;2024-01-30T11:02:38;12.95;;;9.27;;
2061;SDS011;11070;51.336;12.340;2024-01-30T11:05:05;10.65;;;8.65;;
2061;SDS011;11070;51.336;12.340;2024-01-30T11:07:31;11.60;;;8.88;;
2061;SDS011;11070;51.336;12.340;2024-01-30T11:12:24;13.13;;;9.13;;
2061;SDS011;11070;51.336;12.340;2024-01-30T11:15:10;11.20;;;9.13;;
2061;SDS011;11070;51.336;12.340;2024-01-30T11:22:46;10.65;;;8.85;;
2061;SDS011;11070;51.336;12.340;2024-01-30T11:25:13;14.30;;;9.05;;
2061;SDS011;11070;51.336;12.340;2024-01-30T11:27:41;12.73;;;10.00;;
2061;SDS011;11070;51.336;12.340;2024-01-30T11:30:07;11.27;;;9.10;;
2061;SDS011;11070;51.336;12.340;2024-01-30T11:32:33;11.20;;;8.90;;
2061;SDS011;11070;51.336;12.340;2024-01-30T11:34:59;13.80;;;10.17;;
2061;SDS011;11070;51.336;12.340;2024-01-30T11:37:25;11.90;;;9.33;;
2061;SDS011;11070;51.336;12.340;2024-01-30T11:39:54;13.05;;;9.88;;
2061;SDS011;11070;51.336;12.340;2024-01-30T11:42:22;13.70;;;10.57;;
2061;SDS011;11070;51.336;12.340;2024-01-30T11:44:52;13.70;;;9.70;;
2061;SDS011;11070;51.336;12.340;2024-01-30T11:47:18;11.93;;;10.30;;
2061;SDS011;11070;51.336;12.340;2024-01-30T11:49:43;14.33;;;9.80;;
2061;SDS011;11070;51.336;12.340;2024-01-30T11:52:09;13.60;;;10.53;;
2061;SDS011;11070;51.336;12.340;2024-01-30T11:54:36;12.55;;;9.88;;
2061;SDS011;11070;51.336;12.340;2024-01-30T11:57:05;10.48;;;8.98;;
2061;SDS011;11070;51.336;12.340;2024-01-30T11:59:30;13.53;;;9.60;;
2061;SDS011;11070;51.336;12.340;2024-01-30T12:01:56;11.83;;;9.17;;
2061;SDS011;11070;51.336;12.340;2024-01-30T12:04:22;10.50;;;9.23;;
2061;SDS011;11070;51.336;12.340;2024-01-30T12:06:50;12.30;;;9.57;;
2061;SDS011;11070;51.336;12.340;2024-01-30T12:09:16;21.25;;;9.50;;
2061;SDS011;11070;51.336;12.340;2024-01-30T12:14:12;10.63;;;9.15;;
2061;SDS011;11070;51.336;12.340;2024-01-30T12:16:38;10.85;;;9.15;;
2061;SDS011;11070;51.336;12.340;2024-01-30T12:19:03;11.70;;;9.30;;
2061;SDS011;11070;51.336;12.340;2024-01-30T12:21:29;16.40;;;9.37;;
2061;SDS011;11070;51.336;12.340;2024-01-30T12:23:59;17.47;;;10.40;;
2061;SDS011;11070;51.336;12.340;2024-01-30T12:26:25;13.48;;;9.43;;
2061;SDS011;11070;51.336;12.340;2024-01-30T12:28:53;13.77;;;9.20;;
2061;SDS011;11070;51.336;12.340;2024-01-30T12:31:26;10.50;;;8.70;;
2061;SDS011;11070;51.336;12.340;2024-01-30T12:33:53;9.57;;;8.27;;
2061;SDS011;11070;51.336;12.340;2024-01-30T12:36:18;11.53;;;8.97;;
2061;SDS011;11070;51.336;12.340;2024-01-30T12:38:44;13.50;;;9.20;;
2061;SDS011;11070;51.336;12.340;2024-01-30T12:41:10;10.70;;;8.27;;
2061;SDS011;11070;51.336;12.340;2024-01-30T12:43:36;9.70;;;7.80;;
2061;SDS011;11070;51.336;12.340;2024-01-30T12:46:02;10.73;;;8.77;;
2061;SDS011;11070;51.336;12.340;2024-01-30T12:48:28;11.48;;;9.48;;
2061;SDS011;11070;51.336;12.340;2024-01-30T12:50:54;12.15;;;8.65;;
2061;SDS011;11070;51.336;12.340;2024-01-30T12:53:21;10.30;;;8.73;;
2061;SDS011;11070;51.336;12.340;2024-01-30T12:55:47;15.38;;;9.00;;
2061;SDS011;11070;51.336;12.340;2024-01-30T12:58:14;14.50;;;8.95;;
2061;SDS011;11070;51.336;12.340;2024-01-30T13:00:40;12.82;;;9.00;;
2061;SDS011;11070;51.336;12.340;2024-01-30T13:03:08;9.45;;;8.15;;
2061;SDS011;11070;51.336;12.340;2024-01-30T13:05:34;10.27;;;8.90;;
2061;SDS011;11070;51.336;12.340;2024-01-30T13:08:00;12.00;;;9.10;;
2061;SDS011;11070;51.336;12.340;2024-01-30T13:10:26;10.77;;;8.63;;
2061;SDS011;11070;51.336;12.340;2024-01-30T13:12:52;10.10;;;8.45;;
2061;SDS011;11070;51.336;12.340;2024-01-30T13:15:18;10.33;;;8.50;;
2061;SDS011;11070;51.336;12.340;2024-01-30T13:17:44;12.77;;;8.93;;
2061;SDS011;11070;51.336;12.340;2024-01-30T13:20:12;13.27;;;8.60;;
2061;SDS011;11070;51.336;12.340;2024-01-30T13:22:42;10.85;;;8.88;;
2061;SDS011;11070;51.336;12.340;2024-01-30T13:25:08;11.95;;;8.25;;
2061;SDS011;11070;51.336;12.340;2024-01-30T13:27:34;9.87;;;8.73;;
2061;SDS011;11070;51.336;12.340;2024-01-30T13:30:01;13.82;;;9.85;;
2061;SDS011;11070;51.336;12.340;2024-01-30T13:32:26;13.20;;;10.73;;
2061;SDS011;11070;51.336;12.340;2024-01-30T13:34:52;10.83;;;9.50;;
2061;SDS011;11070;51.336;12.340;2024-01-30T13:37:18;11.40;;;9.20;;
2061;SDS011;11070;51.336;12.340;2024-01-30T13:39:43;12.00;;;10.10;;
2061;SDS011;11070;51.336;12.340;2024-01-30T13:42:09;11.67;;;9.83;;
2061;SDS011;11070;51.336;12.340;2024-01-30T13:44:35;12.20;;;9.40;;
2061;SDS011;11070;51.336;12.340;2024-01-30T13:47:01;11.65;;;10.00;;
2061;SDS011;11070;51.336;12.340;2024-01-30T13:49:27;13.27;;;10.50;;
2061;SDS011;11070;51.336;12.340;2024-01-30T13:51:52;13.20;;;9.87;;
2061;SDS011;11070;51.336;12.340;2024-01-30T13:54:18;10.90;;;9.20;;
2061;SDS011;11070;51.336;12.340;2024-01-30T13:56:44;12.93;;;10.03;;
2061;SDS011;11070;51.336;12.340;2024-01-30T13:59:10;10.93;;;9.07;;
2061;SDS011;11070;51.336;12.340;2024-01-30T14:01:35;13.53;;;9.73;;
2061;SDS011;11070;51.336;12.340;2024-01-30T14:04:01;11.00;;;9.53;;
2061;SDS011;11070;51.336;12.340;2024-01-30T14:06:27;12.80;;;9.80;;
2061;SDS011;11070;51.336;12.340;2024-01-30T14:08:53;13.20;;;10.20;;
2061;SDS011;11070;51.336;12.340;2024-01-30T14:11:18;11.70;;;9.50;;
2061;SDS011;11070;51.336;12.340;2024-01-30T14:13:44;10.97;;;9.87;;
2061;SDS011;11070;51.336;12.340;2024-01-30T14:16:10;10.73;;;9.53;;
2061;SDS011;11070;51.336;12.340;2024-01-30T14:18:36;13.67;;;10.60;;
2061;SDS011;11070;51.336;12.340;2024-01-30T14:21:01;13.30;;;9.83;;
2061;SDS011;11070;51.336;12.340;2024-01-30T14:23:27;12.60;;;10.60;;
2061;SDS011;11070;51.336;12.340;2024-01-30T14:25:53;12.57;;;9.00;;
2061;SDS011;11070;51.336;12.340;2024-01-30T14:28:19;12.40;;;9.73;;
2061;SDS011;11070;51.336;12.340;2024-01-30T14:30:44;12.90;;;10.00;;
2061;SDS011;11070;51.336;12.340;2024-01-30T14:33:10;12.10;;;9.90;;
2061;SDS011;11070;51.336;12.340;2024-01-30T14:35:36;13.77;;;10.27;;
2061;SDS011;11070;51.336;12.340;2024-01-30T14:38:02;12.87;;;10.60;;
2061;SDS011;11070;51.336;12.340;2024-01-30T14:40:30;14.45;;;11.60;;
2061;SDS011;11070;51.336;12.340;2024-01-30T14:42:56;12.20;;;10.45;;